Time;durP1;ratioP1;P1;durP2;ratioP2;P2;SDS_P1;SDS_P2;PMS_P1;PMS_P2;Temp;Humidity;BMP_temperature;BMP_pressure;BME280_temperature;BME280_humidity;BME280_pressure;Samples;Min_cycle;Max_cycle;Signal;HPM_P1;HPM_P2
2023/07/11 00:02:21;;;;;;;;;;;19.40;99.90;;;;;;5152111;27;19911;-58
2023/07/11 00:04:47;;;;;;;;;;;19.40;99.90;;;;;;5160925;27;19914;-57
2023/07/11 00:07:12;;;;;;;;;;;19.40;99.90;;;;;;5160916;27;19907;-58
2023/07/11 00:09:38;;;;;;;;;;;19.50;99.90;;;;;;5160840;27;20322;-57
2023/07/11 00:12:04;;;;;;;;;;;19.50;99.90;;;;;;5141991;27;19933;-58
2023/07/11 00:14:29;;;;;;;;;;;19.50;99.90;;;;;;5139791;27;19908;-58
2023/07/11 00:16:55;;;;;;;;;;;19.40;99.90;;;;;;5139677;27;19951;-58
2023/07/11 00:19:21;;;;;;;;;;;19.50;99.90;;;;;;5155749;27;19926;-58
2023/07/11 00:21:47;;;;;;;;;;;19.40;99.90;;;;;;5155421;27;20463;-58
2023/07/11 00:24:13;;;;;;;;;;;19.50;99.90;;;;;;5139449;27;20354;-57
2023/07/11 00:26:39;;;;;;;;;;;19.50;99.90;;;;;;5121014;27;19914;-58
2023/07/11 00:29:22;;;;;;;;;;;19.40;99.90;;;;;;5139792;27;19911;-58
2023/07/11 00:31:48;;;;;;;;;;;19.40;99.90;;;;;;5139451;27;19918;-57
2023/07/11 00:34:14;;;;;;;;;;;19.40;99.90;;;;;;5121104;27;19907;-58
2023/07/11 00:36:39;;;;;;;;;;;19.30;99.90;;;;;;5139629;27;19911;-58
2023/07/11 00:39:05;;;;;;;;;;;19.30;99.90;;;;;;5160029;27;19915;-58
2023/07/11 00:41:31;;;;;;;;;;;19.40;99.90;;;;;;5160632;27;20334;-57
2023/07/11 00:43:57;;;;;;;;;;;19.40;99.90;;;;;;5160292;27;19915;-57
2023/07/11 00:46:23;;;;;;;;;;;19.40;99.90;;;;;;5160235;27;19907;-58
2023/07/11 00:48:51;;;;;;;;;;;19.40;99.90;;;;;;5140877;27;19967;-58
2023/07/11 00:51:19;;;;;;;;;;;19.30;99.90;;;;;;5160367;27;19913;-58
2023/07/11 00:53:45;;;;;;;;;;;19.30;99.90;;;;;;5139669;27;19947;-58
2023/07/11 00:56:14;;;;;;;;;;;19.30;99.90;;;;;;5139262;27;20287;-58
2023/07/11 00:58:41;;;;;;;;;;;19.30;99.90;;;;;;5138925;27;19907;-58
2023/07/11 01:01:07;;;;;;;;;;;19.30;99.90;;;;;;5139169;27;19944;-58
2023/07/11 01:03:32;;;;;;;;;;;19.30;99.90;;;;;;5154002;27;20369;-58
2023/07/11 01:05:58;;;;;;;;;;;19.30;99.90;;;;;;5140941;27;20373;-58
2023/07/11 01:08:24;;;;;;;;;;;19.30;99.90;;;;;;5159134;27;19907;-58
2023/07/11 01:10:50;;;;;;;;;;;19.30;99.90;;;;;;5120436;27;19920;-58
2023/07/11 01:13:15;;;;;;;;;;;19.40;99.90;;;;;;5138639;27;19914;-58
2023/07/11 01:15:41;;;;;;;;;;;19.30;99.90;;;;;;5139040;27;19911;-58
2023/07/11 01:18:07;;;;;;;;;;;19.40;99.90;;;;;;5138638;28;20413;-58
2023/07/11 01:20:32;;;;;;;;;;;19.40;99.90;;;;;;5139901;27;19928;-58
2023/07/11 01:22:58;;;;;;;;;;;19.40;99.90;;;;;;5153579;27;19911;-58
2023/07/11 01:25:24;;;;;;;;;;;19.30;99.90;;;;;;5159171;27;19907;-57
2023/07/11 01:27:50;;;;;;;;;;;19.40;99.90;;;;;;5138931;27;19915;-58
2023/07/11 01:30:17;;;;;;;;;;;19.40;99.90;;;;;;5138552;27;19919;-58
2023/07/11 01:32:43;;;;;;;;;;;19.40;99.90;;;;;;5138715;28;19908;-58
2023/07/11 01:35:08;;;;;;;;;;;19.40;99.90;;;;;;5138897;28;20291;-58
2023/07/11 01:37:34;;;;;;;;;;;19.40;99.90;;;;;;5138638;28;19911;-57
2023/07/11 01:40:00;;;;;;;;;;;19.40;99.90;;;;;;5138544;27;19925;-58
2023/07/11 01:42:26;;;;;;;;;;;19.40;99.90;;;;;;5120173;27;20371;-58
2023/07/11 01:44:51;;;;;;;;;;;19.30;99.90;;;;;;5157401;27;19918;-58
2023/07/11 01:47:17;;;;;;;;;;;19.40;99.90;;;;;;5159156;27;19982;-58
2023/07/11 01:49:43;;;;;;;;;;;19.30;99.90;;;;;;5148985;27;19962;-58
2023/07/11 01:52:19;;;;;;;;;;;19.30;99.90;;;;;;5138790;28;19986;-58
2023/07/11 01:54:45;;;;;;;;;;;19.40;99.90;;;;;;5119787;28;19994;-58
2023/07/11 01:57:11;;;;;;;;;;;19.30;99.90;;;;;;5138490;28;19957;-58
2023/07/11 01:59:37;;;;;;;;;;;19.30;99.90;;;;;;5139951;27;20443;-57
2023/07/11 02:02:03;;;;;;;;;;;19.30;99.90;;;;;;5157454;27;19990;-58
2023/07/11 02:04:29;;;;;;;;;;;19.30;99.90;;;;;;5138587;28;20353;-57
2023/07/11 02:06:55;;;;;;;;;;;19.20;99.90;;;;;;5138598;28;19907;-57
2023/07/11 02:09:22;;;;;;;;;;;19.20;99.90;;;;;;5144430;27;19948;-57
2023/07/11 02:11:48;;;;;;;;;;;19.20;99.90;;;;;;5159361;27;20053;-57
2023/07/11 02:14:15;;;;;;;;;;;19.20;99.90;;;;;;5159123;27;20376;-57
2023/07/11 02:16:44;;;;;;;;;;;19.20;99.90;;;;;;5156679;27;20453;-58
2023/07/11 02:19:13;;;;;;;;;;;19.20;99.90;;;;;;5141522;27;19942;-58
2023/07/11 02:21:39;;;;;;;;;;;19.20;99.90;;;;;;5154886;27;19915;-58
2023/07/11 02:24:09;;;;;;;;;;;19.10;99.90;;;;;;5139729;27;19908;-57
2023/07/11 02:26:35;;;;;;;;;;;19.10;99.90;;;;;;5142037;27;19915;-57
2023/07/11 02:29:01;;;;;;;;;;;19.10;99.90;;;;;;5142194;27;19986;-57
2023/07/11 02:31:26;;;;;;;;;;;19.10;99.90;;;;;;5142136;27;20314;-57
2023/07/11 02:33:53;;;;;;;;;;;19.10;99.90;;;;;;5145627;27;19907;-58
2023/07/11 02:36:19;;;;;;;;;;;19.10;99.90;;;;;;5162702;27;19919;-58
2023/07/11 02:38:44;;;;;;;;;;;19.10;99.90;;;;;;5162489;27;19956;-57
2023/07/11 02:41:10;;;;;;;;;;;19.20;99.90;;;;;;5162730;27;20405;-57
2023/07/11 02:43:35;;;;;;;;;;;19.10;99.90;;;;;;5162810;27;19928;-57
2023/07/11 02:46:01;;;;;;;;;;;19.20;99.90;;;;;;5162619;27;19907;-57
2023/07/11 02:48:29;;;;;;;;;;;19.20;99.90;;;;;;5162365;27;19915;-58
2023/07/11 02:50:55;;;;;;;;;;;19.20;99.90;;;;;;5157697;27;19911;-58
2023/07/11 02:53:21;;;;;;;;;;;19.20;99.90;;;;;;5141765;27;19966;-57
2023/07/11 02:55:46;;;;;;;;;;;19.20;99.90;;;;;;5141855;27;19953;-57
2023/07/11 02:58:12;;;;;;;;;;;19.20;99.90;;;;;;5141821;27;19911;-57
2023/07/11 03:00:37;;;;;;;;;;;19.20;99.90;;;;;;5141266;27;19980;-58
2023/07/11 03:03:03;;;;;;;;;;;19.20;99.90;;;;;;5151706;27;20326;-58
2023/07/11 03:05:29;;;;;;;;;;;19.20;99.90;;;;;;5162383;27;19911;-58
2023/07/11 03:07:55;;;;;;;;;;;19.20;99.90;;;;;;5157651;27;19911;-58
2023/07/11 03:10:20;;;;;;;;;;;19.20;99.90;;;;;;5141136;27;20358;-57
2023/07/11 03:12:46;;;;;;;;;;;19.20;99.90;;;;;;5141129;27;19908;-57
2023/07/11 03:15:12;;;;;;;;;;;19.20;99.90;;;;;;5141317;27;19914;-57
2023/07/11 03:17:37;;;;;;;;;;;19.20;99.90;;;;;;5140770;27;20443;-58
2023/07/11 03:20:03;;;;;;;;;;;19.20;99.90;;;;;;5141044;27;19950;-57
2023/07/11 03:22:47;;;;;;;;;;;19.20;99.90;;;;;;5151896;27;19914;-58
2023/07/11 03:25:13;;;;;;;;;;;19.20;99.90;;;;;;5154474;27;19907;-57
2023/07/11 03:27:38;;;;;;;;;;;19.20;99.90;;;;;;5141045;27;20370;-58
2023/07/11 03:30:04;;;;;;;;;;;19.20;99.90;;;;;;5140823;27;19919;-58
2023/07/11 03:32:30;;;;;;;;;;;19.20;99.90;;;;;;5140736;27;19915;-58
2023/07/11 03:34:56;;;;;;;;;;;19.20;99.90;;;;;;5140823;27;19907;-58
2023/07/11 03:37:21;;;;;;;;;;;19.20;99.90;;;;;;5140845;27;20008;-58
2023/07/11 03:39:47;;;;;;;;;;;19.20;99.90;;;;;;5140436;27;19918;-58
2023/07/11 03:42:12;;;;;;;;;;;19.20;99.90;;;;;;5147310;27;19907;-58
2023/07/11 03:44:41;;;;;;;;;;;19.20;99.90;;;;;;5161408;27;19911;-58
2023/07/11 03:47:06;;;;;;;;;;;19.10;99.90;;;;;;5160849;27;20006;-58
2023/07/11 03:49:32;;;;;;;;;;;19.20;99.90;;;;;;5160827;27;19947;-58
2023/07/11 03:51:58;;;;;;;;;;;19.20;99.90;;;;;;5161090;27;19911;-58
2023/07/11 03:54:23;;;;;;;;;;;19.20;99.90;;;;;;5160992;27;19907;-58
2023/07/11 03:56:52;;;;;;;;;;;19.20;99.90;;;;;;5161051;27;19934;-58
2023/07/11 03:59:18;;;;;;;;;;;19.20;99.90;;;;;;5153378;27;19908;-58
2023/07/11 04:01:43;;;;;;;;;;;19.20;99.90;;;;;;5140040;27;20422;-58
2023/07/11 04:04:09;;;;;;;;;;;19.20;99.90;;;;;;5158876;27;19983;-58
2023/07/11 04:06:35;;;;;;;;;;;19.20;99.90;;;;;;5142231;27;19914;-58
2023/07/11 04:09:00;;;;;;;;;;;19.20;99.90;;;;;;5160702;27;19907;-58
2023/07/11 04:11:26;;;;;;;;;;;19.20;99.90;;;;;;5160303;27;19938;-58
2023/07/11 04:13:52;;;;;;;;;;;19.10;99.90;;;;;;5160885;27;19914;-58
2023/07/11 04:16:17;;;;;;;;;;;19.10;99.90;;;;;;5152698;27;20005;-58
2023/07/11 04:18:43;;;;;;;;;;;19.10;99.90;;;;;;5139727;27;19926;-58
2023/07/11 04:21:08;;;;;;;;;;;19.10;99.90;;;;;;5156899;27;20072;-58
2023/07/11 04:23:34;;;;;;;;;;;19.10;99.90;;;;;;5140388;27;19908;-58
2023/07/11 04:26:00;;;;;;;;;;;19.10;99.90;;;;;;5139563;27;19960;-58
2023/07/11 04:28:25;;;;;;;;;;;19.10;99.90;;;;;;5139623;27;19907;-58
2023/07/11 04:30:51;;;;;;;;;;;19.10;99.90;;;;;;5153081;27;19912;-58
2023/07/11 04:33:16;;;;;;;;;;;19.10;99.90;;;;;;5152885;27;19907;-58
2023/07/11 04:35:45;;;;;;;;;;;19.10;99.90;;;;;;5139624;27;19960;-58
2023/07/11 04:38:11;;;;;;;;;;;19.10;99.90;;;;;;5139711;27;20254;-58
2023/07/11 04:40:37;;;;;;;;;;;19.10;99.90;;;;;;5150055;27;19911;-57
2023/07/11 04:43:03;;;;;;;;;;;19.10;99.90;;;;;;5160520;27;19932;-57
2023/07/11 04:45:28;;;;;;;;;;;19.10;99.90;;;;;;5160180;27;19918;-58
2023/07/11 04:47:54;;;;;;;;;;;19.10;99.90;;;;;;5159687;27;19956;-58
2023/07/11 04:50:20;;;;;;;;;;;19.10;99.90;;;;;;5150810;27;19917;-58
2023/07/11 04:52:45;;;;;;;;;;;19.10;99.90;;;;;;5139509;27;19907;-58
2023/07/11 04:55:11;;;;;;;;;;;19.10;99.90;;;;;;5148583;27;19966;-58
2023/07/11 04:57:37;;;;;;;;;;;19.10;99.90;;;;;;5154409;27;19922;-58
2023/07/11 05:00:03;;;;;;;;;;;19.10;99.90;;;;;;5145494;27;20460;-58
2023/07/11 05:02:29;;;;;;;;;;;19.10;99.90;;;;;;5154235;27;19908;-58
2023/07/11 05:04:55;;;;;;;;;;;19.10;99.90;;;;;;5139117;27;20263;-56
2023/07/11 05:07:20;;;;;;;;;;;19.20;99.90;;;;;;5146819;27;19907;-57
2023/07/11 05:09:46;;;;;;;;;;;19.10;99.90;;;;;;5157144;27;19960;-58
2023/07/11 05:12:11;;;;;;;;;;;19.10;99.90;;;;;;5160123;27;20415;-58
2023/07/11 05:14:37;;;;;;;;;;;19.10;99.90;;;;;;5154830;27;19911;-58
2023/07/11 05:17:03;;;;;;;;;;;19.20;99.90;;;;;;5140926;27;19923;-57
2023/07/11 05:19:28;;;;;;;;;;;19.10;99.90;;;;;;5158863;27;20658;-59
2023/07/11 05:21:54;;;;;;;;;;;19.20;99.90;;;;;;5139072;27;20010;-57
2023/07/11 05:24:20;;;;;;;;;;;19.20;99.90;;;;;;5145537;27;20061;-57
2023/07/11 05:26:45;;;;;;;;;;;19.20;99.90;;;;;;5139250;27;19912;-58
2023/07/11 05:29:11;;;;;;;;;;;19.20;99.90;;;;;;5138788;28;20354;-57
2023/07/11 05:31:37;;;;;;;;;;;19.20;99.90;;;;;;5138377;27;20448;-58
2023/07/11 05:34:02;;;;;;;;;;;19.20;99.90;;;;;;5138274;27;19912;-58
2023/07/11 05:36:31;;;;;;;;;;;19.20;99.90;;;;;;5147276;27;19926;-58
2023/07/11 05:39:02;;;;;;;;;;;19.20;99.90;;;;;;5159391;27;20369;-58
2023/07/11 05:41:28;;;;;;;;;;;19.20;99.90;;;;;;5149493;27;19954;-58
2023/07/11 05:43:55;;;;;;;;;;;19.20;99.90;;;;;;5138946;28;19907;-58
2023/07/11 05:46:21;;;;;;;;;;;19.30;99.90;;;;;;5138883;28;19908;-58
2023/07/11 05:48:47;;;;;;;;;;;19.30;99.90;;;;;;5138316;28;19907;-58
2023/07/11 05:51:14;;;;;;;;;;;19.30;99.90;;;;;;5146042;27;19918;-58
2023/07/11 05:53:40;;;;;;;;;;;19.30;99.90;;;;;;5139073;28;19908;-57
2023/07/11 05:56:05;;;;;;;;;;;19.20;99.90;;;;;;5138750;28;20023;-58
2023/07/11 05:58:32;;;;;;;;;;;19.20;99.90;;;;;;5147901;27;19908;-58
2023/07/11 06:00:58;;;;;;;;;;;19.20;99.90;;;;;;5151609;27;20010;-57
2023/07/11 06:03:25;;;;;;;;;;;19.30;99.90;;;;;;5146383;27;19911;-57
2023/07/11 06:05:51;;;;;;;;;;;19.30;99.90;;;;;;5162583;27;20289;-58
2023/07/11 06:08:17;;;;;;;;;;;19.30;99.90;;;;;;5155831;27;19911;-57
2023/07/11 06:10:43;;;;;;;;;;;19.30;99.90;;;;;;5130068;27;19972;-57
2023/07/11 06:13:13;;;;;;;;;;;19.30;99.90;;;;;;5143288;27;19915;-55
2023/07/11 06:15:38;;;;;;;;;;;19.30;99.90;;;;;;5155115;27;19958;-57
2023/07/11 06:18:04;;;;;;;;;;;19.30;99.90;;;;;;5159057;27;19926;-57
2023/07/11 06:20:30;;;;;;;;;;;19.30;99.90;;;;;;5148243;27;19918;-57
2023/07/11 06:22:56;;;;;;;;;;;19.40;99.90;;;;;;5162978;27;19907;-57
2023/07/11 06:25:21;;;;;;;;;;;19.40;99.90;;;;;;5162864;27;20381;-56
2023/07/11 06:27:47;;;;;;;;;;;19.50;99.90;;;;;;5155618;27;19946;-58
2023/07/11 06:30:13;;;;;;;;;;;19.50;99.90;;;;;;5149229;27;20289;-56
2023/07/11 06:32:39;;;;;;;;;;;19.60;99.90;;;;;;5125058;27;19915;-58
2023/07/11 06:35:04;;;;;;;;;;;19.60;99.90;;;;;;5146051;27;19911;-58
2023/07/11 06:37:30;;;;;;;;;;;19.70;99.90;;;;;;5149212;27;19912;-58
2023/07/11 06:39:56;;;;;;;;;;;19.60;99.90;;;;;;5148956;27;19911;-57
2023/07/11 06:42:21;;;;;;;;;;;19.70;99.90;;;;;;5150132;27;19937;-57
2023/07/11 06:44:47;;;;;;;;;;;19.70;99.90;;;;;;5143371;27;20032;-57
2023/07/11 06:47:13;;;;;;;;;;;19.70;99.90;;;;;;5141258;27;20036;-58
2023/07/11 06:49:38;;;;;;;;;;;19.70;99.90;;;;;;5148502;27;19918;-58
2023/07/11 06:52:04;;;;;;;;;;;19.70;99.90;;;;;;5140880;27;19911;-58
2023/07/11 06:54:30;;;;;;;;;;;19.70;99.90;;;;;;5141752;27;19922;-58
2023/07/11 06:56:57;;;;;;;;;;;19.70;99.90;;;;;;5158702;27;20290;-58
2023/07/11 06:59:23;;;;;;;;;;;19.70;99.90;;;;;;5158507;27;19931;-57
2023/07/11 07:01:49;;;;;;;;;;;19.70;99.90;;;;;;5142972;27;19915;-58
2023/07/11 07:04:15;;;;;;;;;;;19.70;99.90;;;;;;5151437;27;19934;-58
2023/07/11 07:06:41;;;;;;;;;;;19.70;99.90;;;;;;5150265;27;19915;-58
2023/07/11 07:09:06;;;;;;;;;;;19.70;99.90;;;;;;5160743;27;19911;-58
2023/07/11 07:11:35;;;;;;;;;;;19.70;99.90;;;;;;5143438;27;20011;-58
2023/07/11 07:14:01;;;;;;;;;;;19.70;99.90;;;;;;5127408;27;19917;-58
2023/07/11 07:16:28;;;;;;;;;;;19.70;99.90;;;;;;5145423;27;19919;-58
2023/07/11 07:18:54;;;;;;;;;;;19.70;99.90;;;;;;5146640;27;19923;-58
2023/07/11 07:21:20;;;;;;;;;;;19.70;99.90;;;;;;5150903;27;19958;-58
2023/07/11 07:23:46;;;;;;;;;;;19.70;99.90;;;;;;5145615;27;20002;-58
2023/07/11 07:26:11;;;;;;;;;;;19.60;99.90;;;;;;5144874;27;19915;-58
2023/07/11 07:28:37;;;;;;;;;;;19.60;99.90;;;;;;5140623;27;19919;-58
2023/07/11 07:31:05;;;;;;;;;;;19.60;99.90;;;;;;5150962;27;20305;-58
2023/07/11 07:33:31;;;;;;;;;;;19.60;99.90;;;;;;5150701;27;20396;-57
2023/07/11 07:35:59;;;;;;;;;;;19.60;99.90;;;;;;5145419;27;19911;-58
2023/07/11 07:38:27;;;;;;;;;;;19.70;99.90;;;;;;5151350;27;19960;-58
2023/07/11 07:40:54;;;;;;;;;;;19.70;99.90;;;;;;5153071;27;19934;-58
2023/07/11 07:43:20;;;;;;;;;;;19.70;99.90;;;;;;5148546;27;19911;-56
2023/07/11 07:45:52;;;;;;;;;;;19.70;99.90;;;;;;5147115;27;19911;-57
2023/07/11 07:48:18;;;;;;;;;;;19.70;99.90;;;;;;5161388;27;19949;-58
2023/07/11 07:50:44;;;;;;;;;;;19.80;99.90;;;;;;5156936;27;21704;-57
2023/07/11 07:53:11;;;;;;;;;;;19.80;99.90;;;;;;5152781;27;20006;-58
2023/07/11 07:55:36;;;;;;;;;;;19.90;99.90;;;;;;5146072;27;20022;-58
2023/07/11 07:58:02;;;;;;;;;;;20.00;99.90;;;;;;5147848;27;19950;-58
2023/07/11 08:00:28;;;;;;;;;;;20.10;99.90;;;;;;5146492;27;19926;-58
2023/07/11 08:02:53;;;;;;;;;;;20.20;99.90;;;;;;5147119;27;19932;-57
2023/07/11 08:05:22;;;;;;;;;;;20.20;99.90;;;;;;5140518;27;19919;-58
2023/07/11 08:07:48;;;;;;;;;;;20.10;99.90;;;;;;5142494;27;20377;-58
2023/07/11 08:10:15;;;;;;;;;;;20.10;99.90;;;;;;5144305;27;19972;-58
2023/07/11 08:12:41;;;;;;;;;;;20.20;99.90;;;;;;5159115;27;20304;-57
2023/07/11 08:15:07;;;;;;;;;;;20.20;99.90;;;;;;5146111;27;19961;-58
2023/07/11 08:17:33;;;;;;;;;;;20.30;99.90;;;;;;5141518;27;19926;-58
2023/07/11 08:19:58;;;;;;;;;;;20.20;99.90;;;;;;5142954;27;19915;-58
2023/07/11 08:22:24;;;;;;;;;;;20.30;99.90;;;;;;5141478;27;19961;-58
2023/07/11 08:24:50;;;;;;;;;;;20.30;99.90;;;;;;5144406;27;19964;-58
2023/07/11 08:27:15;;;;;;;;;;;20.40;99.90;;;;;;5138131;27;19957;-58
2023/07/11 08:29:45;;;;;;;;;;;20.30;99.90;;;;;;5139025;27;19915;-58
2023/07/11 08:32:14;;;;;;;;;;;20.40;99.90;;;;;;5153559;27;19911;-58
2023/07/11 08:34:39;;;;;;;;;;;20.40;99.90;;;;;;5159778;27;19911;-58
2023/07/11 08:37:05;;;;;;;;;;;20.50;99.90;;;;;;5159786;27;20438;-58
2023/07/11 08:39:31;;;;;;;;;;;20.50;99.90;;;;;;5156594;27;20374;-57
2023/07/11 08:41:58;;;;;;;;;;;20.60;99.90;;;;;;5145951;27;20275;-58
2023/07/11 08:44:30;;;;;;;;;;;20.50;99.90;;;;;;5120374;27;20020;-58
2023/07/11 08:47:25;;;;;;;;;;;20.50;99.90;;;;;;5139326;27;19912;-58
2023/07/11 08:50:01;;;;;;;;;;;20.40;99.90;;;;;;5057669;27;19952;-58
2023/07/11 08:52:29;;;;;;;;;;;20.10;99.90;;;;;;5155157;27;19913;-58
2023/07/11 08:54:55;;;;;;;;;;;20.10;99.90;;;;;;5160033;27;19911;-58
2023/07/11 08:57:23;;;;;;;;;;;20.00;99.90;;;;;;5159892;27;19918;-58
2023/07/11 09:00:02;;;;;;;;;;;20.00;99.90;;;;;;5159892;27;20317;-58
2023/07/11 09:03:01;;;;;;;;;;;20.00;99.90;;;;;;5142457;27;20339;-59
2023/07/11 09:05:26;;;;;;;;;;;19.80;99.90;;;;;;5138896;27;19918;-57
2023/07/11 09:07:53;;;;;;;;;;;19.80;99.90;;;;;;5138237;27;19908;-58
2023/07/11 09:10:28;;;;;;;;;;;19.80;99.90;;;;;;5119211;27;19911;-57
2023/07/11 09:13:05;;;;;;;;;;;19.80;99.90;;;;;;5157978;27;19914;-58
2023/07/11 09:15:35;;;;;;;;;;;19.90;99.90;;;;;;5159968;27;19963;-58
2023/07/11 09:18:21;;;;;;;;;;;20.00;99.90;;;;;;5159614;27;20289;-57
2023/07/11 09:20:57;;;;;;;;;;;20.00;99.90;;;;;;5157257;27;19907;-57
2023/07/11 09:23:32;;;;;;;;;;;20.10;99.90;;;;;;5139290;28;19907;-58
2023/07/11 09:26:00;;;;;;;;;;;20.20;99.90;;;;;;5138705;27;19915;-58
2023/07/11 09:28:28;;;;;;;;;;;20.20;99.90;;;;;;5138927;28;20265;-58
2023/07/11 09:30:56;;;;;;;;;;;20.30;99.90;;;;;;5141010;27;19982;-57
2023/07/11 09:33:26;;;;;;;;;;;20.30;99.90;;;;;;5161614;27;19931;-58
2023/07/11 09:35:52;;;;;;;;;;;20.30;99.90;;;;;;5163570;27;19907;-58
2023/07/11 09:38:38;;;;;;;;;;;20.30;99.90;;;;;;5163692;27;19911;-57
2023/07/11 09:41:22;;;;;;;;;;;20.30;99.90;;;;;;5159138;27;19912;-58
2023/07/11 09:43:48;;;;;;;;;;;20.40;99.90;;;;;;5142869;27;19908;-58
2023/07/11 09:46:20;;;;;;;;;;;20.50;99.90;;;;;;5142719;27;19908;-58
2023/07/11 09:48:48;;;;;;;;;;;20.50;99.90;;;;;;5143246;27;19911;-58
2023/07/11 09:51:24;;;;;;;;;;;20.60;99.90;;;;;;5147024;27;19960;-58
2023/07/11 09:53:50;;;;;;;;;;;20.70;99.90;;;;;;5162992;27;19911;-58
2023/07/11 09:56:16;;;;;;;;;;;20.70;99.90;;;;;;5163303;27;19908;-58
2023/07/11 09:58:47;;;;;;;;;;;20.80;99.90;;;;;;5163288;27;20002;-58
2023/07/11 10:01:31;;;;;;;;;;;20.90;99.90;;;;;;5162641;27;19907;-58
2023/07/11 10:03:58;;;;;;;;;;;21.00;99.90;;;;;;5163143;27;19912;-57
2023/07/11 10:06:27;;;;;;;;;;;21.00;99.90;;;;;;5162916;27;19956;-50
2023/07/11 10:08:52;;;;;;;;;;;21.00;99.90;;;;;;5163057;27;19915;-56
2023/07/11 10:11:18;;;;;;;;;;;21.10;99.90;;;;;;5158031;27;19912;-56
2023/07/11 10:13:47;;;;;;;;;;;21.00;99.90;;;;;;5142342;27;20342;-56
2023/07/11 10:16:19;;;;;;;;;;;21.00;99.90;;;;;;5142128;27;19998;-56
2023/07/11 10:18:45;;;;;;;;;;;20.80;99.90;;;;;;5142163;27;19925;-56
2023/07/11 10:21:16;;;;;;;;;;;20.70;99.90;;;;;;5145269;27;20006;-56
2023/07/11 10:23:42;;;;;;;;;;;20.70;99.90;;;;;;5144015;27;19907;-56
2023/07/11 10:26:11;;;;;;;;;;;20.70;99.90;;;;;;5162739;27;20560;-56
2023/07/11 10:28:39;;;;;;;;;;;20.60;99.90;;;;;;5162971;27;19907;-57
2023/07/11 10:31:15;;;;;;;;;;;20.50;99.90;;;;;;5160122;27;20053;-56
2023/07/11 10:33:52;;;;;;;;;;;20.50;99.90;;;;;;5142235;27;19912;-57
2023/07/11 10:36:20;;;;;;;;;;;20.40;99.90;;;;;;5141948;27;19908;-57
2023/07/11 10:38:54;;;;;;;;;;;20.60;99.90;;;;;;5142246;27;19907;-56
2023/07/11 10:41:24;;;;;;;;;;;20.70;99.90;;;;;;5145588;27;20003;-57
2023/07/11 10:43:51;;;;;;;;;;;21.00;99.90;;;;;;5162599;27;19911;-57
2023/07/11 10:46:33;;;;;;;;;;;21.10;99.90;;;;;;5161529;27;19907;-57
2023/07/11 10:49:06;;;;;;;;;;;21.20;99.90;;;;;;5162603;27;19917;-56
2023/07/11 10:52:04;;;;;;;;;;;21.40;99.90;;;;;;5156452;27;19907;-57
2023/07/11 10:54:35;;;;;;;;;;;21.20;99.90;;;;;;5106723;27;20040;-56
2023/07/11 10:57:04;;;;;;;;;;;21.30;99.90;;;;;;5141173;27;19911;-54
2023/07/11 10:59:31;;;;;;;;;;;21.50;99.90;;;;;;5141572;27;19921;-56
2023/07/11 11:01:56;;;;;;;;;;;21.70;99.90;;;;;;5150258;27;19938;-55
2023/07/11 11:04:40;;;;;;;;;;;22.10;99.90;;;;;;5162107;27;19918;-55
2023/07/11 11:07:06;;;;;;;;;;;22.60;99.90;;;;;;5162032;27;19998;-55
2023/07/11 11:09:47;;;;;;;;;;;22.70;99.90;;;;;;5162219;27;19967;-55
2023/07/11 11:12:18;;;;;;;;;;;22.90;99.90;;;;;;5150451;27;19907;-56
2023/07/11 11:14:52;;;;;;;;;;;23.00;99.90;;;;;;5141132;27;20002;-57
2023/07/11 11:17:33;;;;;;;;;;;22.80;99.90;;;;;;5140792;27;19964;-55
2023/07/11 11:20:10;;;;;;;;;;;22.80;99.90;;;;;;5141418;27;19912;-55
2023/07/11 11:22:44;;;;;;;;;;;22.80;99.90;;;;;;5154708;27;19911;-56
2023/07/11 11:25:19;;;;;;;;;;;22.70;99.90;;;;;;5161474;27;19907;-56
2023/07/11 11:27:52;;;;;;;;;;;22.70;99.90;;;;;;5161895;27;19960;-56
2023/07/11 11:30:17;;;;;;;;;;;23.30;99.90;;;;;;5161783;27;19907;-55
2023/07/11 11:32:55;;;;;;;;;;;23.50;99.90;;;;;;5127601;27;20374;-56
2023/07/11 11:35:39;;;;;;;;;;;23.20;99.90;;;;;;5140882;27;19908;-56
2023/07/11 11:38:07;;;;;;;;;;;23.20;99.90;;;;;;5140776;27;19943;-55
2023/07/11 11:40:37;;;;;;;;;;;23.30;99.90;;;;;;5140784;27;19908;-56
2023/07/11 11:43:05;;;;;;;;;;;23.30;99.90;;;;;;5157761;27;19911;-56
2023/07/11 11:45:31;;;;;;;;;;;23.20;99.90;;;;;;5161533;27;19907;-56
2023/07/11 11:47:59;;;;;;;;;;;22.80;99.90;;;;;;5161186;27;19907;-56
2023/07/11 11:50:25;;;;;;;;;;;22.70;99.90;;;;;;5161397;27;19914;-55
2023/07/11 11:52:57;;;;;;;;;;;22.60;99.90;;;;;;5145075;27;19919;-57
2023/07/11 11:55:36;;;;;;;;;;;22.60;99.90;;;;;;5157486;27;20007;-56
2023/07/11 11:58:01;;;;;;;;;;;22.50;99.90;;;;;;5135266;27;19964;-55
2023/07/11 12:00:37;;;;;;;;;;;22.80;99.90;;;;;;5160796;27;19915;-56
2023/07/11 12:03:03;;;;;;;;;;;23.00;99.90;;;;;;5160708;27;19907;-56
2023/07/11 12:05:29;;;;;;;;;;;23.20;99.90;;;;;;5160408;27;19911;-55
2023/07/11 12:08:13;;;;;;;;;;;23.10;99.90;;;;;;5160235;27;20250;-56
2023/07/11 12:10:58;;;;;;;;;;;23.30;99.90;;;;;;5160739;27;20376;-56
2023/07/11 12:13:30;;;;;;;;;;;23.80;99.90;;;;;;5160531;27;19974;-55
2023/07/11 12:15:56;;;;;;;;;;;24.10;99.90;;;;;;5160358;27;20374;-56
2023/07/11 12:18:28;;;;;;;;;;;24.80;99.90;;;;;;5159344;27;20006;-56
2023/07/11 12:21:06;;;;;;;;;;;25.30;99.90;;;;;;5160565;27;19908;-55
2023/07/11 12:23:32;;;;;;;;;;;25.50;99.90;;;;;;5160986;27;19954;-56
2023/07/11 12:26:09;;;;;;;;;;;24.90;99.90;;;;;;5160170;27;19913;-56
2023/07/11 12:28:34;;;;;;;;;;;25.10;99.90;;;;;;5153073;27;19911;-57
2023/07/11 12:31:04;;;;;;;;;;;24.70;99.90;;;;;;5139447;27;19953;-56
2023/07/11 12:33:32;;;;;;;;;;;25.30;99.90;;;;;;5139776;27;19907;-57
2023/07/11 12:36:06;;;;;;;;;;;25.40;99.90;;;;;;5139468;27;20282;-57
2023/07/11 12:38:35;;;;;;;;;;;25.20;99.90;;;;;;5145019;27;19983;-56
2023/07/11 12:41:21;;;;;;;;;;;24.70;99.90;;;;;;5160398;27;19955;-57
2023/07/11 12:43:48;;;;;;;;;;;24.70;99.90;;;;;;5107266;27;19994;-57
2023/07/11 12:46:22;;;;;;;;;;;24.90;99.90;;;;;;5160211;27;19914;-57
2023/07/11 12:48:49;;;;;;;;;;;25.50;99.90;;;;;;5151505;27;19911;-57
2023/07/11 12:51:26;;;;;;;;;;;25.60;99.90;;;;;;5140959;27;20331;-57
2023/07/11 12:53:55;;;;;;;;;;;25.60;99.90;;;;;;5147373;27;20010;-57
2023/07/11 12:56:21;;;;;;;;;;;25.30;99.90;;;;;;5139169;27;19911;-55
2023/07/11 12:58:48;;;;;;;;;;;24.30;99.90;;;;;;5146493;27;19915;-56
2023/07/11 13:01:16;;;;;;;;;;;24.90;99.90;;;;;;5158358;27;19963;-57
2023/07/11 13:03:42;;;;;;;;;;;25.00;99.90;;;;;;5143573;27;19912;-56
2023/07/11 13:06:19;;;;;;;;;;;24.70;99.90;;;;;;5142540;27;19919;-55
2023/07/11 13:08:45;;;;;;;;;;;24.00;99.90;;;;;;5137956;27;20282;-57
2023/07/11 13:11:21;;;;;;;;;;;23.90;99.90;;;;;;5137936;27;19968;-56
2023/07/11 13:13:47;;;;;;;;;;;23.50;99.90;;;;;;5140280;27;19998;-55
2023/07/11 13:16:13;;;;;;;;;;;22.90;99.90;;;;;;5145514;27;20013;-56
2023/07/11 13:18:42;;;;;;;;;;;23.10;99.90;;;;;;5133491;27;19928;-54
2023/07/11 13:21:10;;;;;;;;;;;23.40;99.90;;;;;;5133394;27;21319;-55
2023/07/11 13:23:37;;;;;;;;;;;23.80;99.90;;;;;;5138075;28;19964;-56
2023/07/11 13:26:10;;;;;;;;;;;23.50;99.90;;;;;;5136040;28;19912;-56
2023/07/11 13:28:37;;;;;;;;;;;23.40;99.90;;;;;;5135589;28;19908;-56
2023/07/11 13:31:04;;;;;;;;;;;23.40;99.90;;;;;;5122580;28;19943;-57
2023/07/11 13:33:31;;;;;;;;;;;23.50;99.90;;;;;;5126223;28;19919;-56
2023/07/11 13:36:05;;;;;;;;;;;23.00;99.90;;;;;;5135349;28;19957;-56
2023/07/11 13:38:40;;;;;;;;;;;23.00;99.90;;;;;;5136130;28;19919;-57
2023/07/11 13:41:12;;;;;;;;;;;22.50;99.90;;;;;;5111842;28;19918;-56
2023/07/11 13:43:38;;;;;;;;;;;22.20;99.90;;;;;;5133728;28;19911;-56
2023/07/11 13:46:04;;;;;;;;;;;22.00;99.90;;;;;;5137036;28;19973;-56
2023/07/11 13:48:30;;;;;;;;;;;21.90;99.90;;;;;;5137430;28;19911;-55
2023/07/11 13:51:15;;;;;;;;;;;22.00;99.90;;;;;;5135414;28;19911;-55
2023/07/11 13:53:44;;;;;;;;;;;21.60;99.90;;;;;;5128065;28;19923;-56
2023/07/11 13:56:10;;;;;;;;;;;21.60;99.90;;;;;;5117837;28;20013;-55
2023/07/11 13:58:36;;;;;;;;;;;21.80;99.90;;;;;;5122473;28;19938;-56
2023/07/11 14:01:01;;;;;;;;;;;22.10;99.90;;;;;;5129895;28;20319;-57
2023/07/11 14:03:30;;;;;;;;;;;22.10;99.90;;;;;;5127066;28;19915;-54
2023/07/11 14:05:56;;;;;;;;;;;22.20;99.90;;;;;;5131738;28;19911;-57
2023/07/11 14:08:21;;;;;;;;;;;22.60;99.90;;;;;;5118203;28;19912;-55
2023/07/11 14:10:48;;;;;;;;;;;22.70;99.90;;;;;;5133777;28;19933;-57
2023/07/11 14:13:18;;;;;;;;;;;23.20;99.90;;;;;;5124320;28;19911;-57
2023/07/11 14:15:44;;;;;;;;;;;23.70;99.90;;;;;;5127199;28;20014;-57
2023/07/11 14:18:13;;;;;;;;;;;23.90;99.90;;;;;;5120038;28;19978;-56
2023/07/11 14:20:39;;;;;;;;;;;23.70;99.90;;;;;;5130599;27;19912;-57
2023/07/11 14:23:12;;;;;;;;;;;23.40;99.90;;;;;;5130881;27;19965;-54